KAGC/AGC METAR and TAF weather

Enter ICAO airport designator
Station Type Date Time Source
KAGC METAR 2021/08/04 17:53 UTC NOAA

KAGC 041753Z 8SM BKN100 26/17 A3011 RMK AO2 SLP191 T02560167 10267 20183 58005


Station Type Date Time Source
KAGC Decoded METAR 2021/08/04 17:53 UTC NOAA

PITTSBURGH ALLEGHENY CTY., PA, United States (KAGC) 40-21N 079-55W 389M
Aug 04, 2021 - 01:53 PM EDT / 2021.08.04 1753 UTC
Visibility: 8 mile(s):0
Sky conditions: mostly cloudy
Temperature: 78.1 F (25.6 C)
Dew Point: 62.1 F (16.7 C)
Relative Humidity: 57%
Pressure (altimeter): 30.11 in. Hg (1019 hPa)
Pressure tendency: 0.01 inches (0.5 hPa) lower than three hours ago
ob: KAGC 041753Z 8SM BKN100 26/17 A3011 RMK AO2 SLP191 T02560167 10267 20183 58005
cycle: 18

Station Type Date Time Source
KAGC TAF 2021/08/04 18:30 UTC NOAA

TAF KAGC 041728Z 0418/0518 09003KT P6SM SCT040 BKN070
FM042300 10003KT P6SM SCT100

Example: see airport list